createdAt,value
2023-05-22T00:01:49.266Z,6.41
2023-05-22T00:04:34.475Z,6.84
2023-05-22T00:07:19.935Z,6.58
2023-05-22T00:10:05.140Z,6.31
2023-05-22T00:12:50.717Z,6.49
2023-05-22T00:15:36.200Z,6.39
2023-05-22T00:18:21.501Z,6.43
2023-05-22T00:21:06.896Z,6.40
2023-05-22T00:23:52.229Z,6.43
2023-05-22T00:26:37.694Z,6.29
2023-05-22T00:29:22.901Z,6.35
2023-05-22T00:32:08.482Z,6.35
2023-05-22T00:34:53.779Z,6.40
2023-05-22T00:37:39.253Z,6.52
2023-05-22T00:40:24.516Z,6.06
2023-05-22T00:43:09.859Z,6.26
2023-05-22T00:45:55.209Z,6.52
2023-05-22T00:48:40.470Z,5.96
2023-05-22T00:51:25.922Z,6.21
2023-05-22T00:54:11.211Z,6.05
2023-05-22T00:56:56.359Z,6.15
2023-05-22T00:59:42.075Z,5.86
2023-05-22T01:02:27.272Z,5.90
2023-05-22T01:05:12.752Z,5.92
2023-05-22T01:07:58.064Z,5.72
2023-05-22T01:10:43.575Z,6.25
2023-05-22T01:13:29.047Z,5.71
2023-05-22T01:16:14.361Z,5.67
2023-05-22T01:18:59.768Z,6.17
2023-05-22T01:21:44.809Z,5.78
2023-05-22T01:24:30.095Z,5.62
2023-05-22T01:27:15.636Z,5.85
2023-05-22T01:30:01.053Z,5.80
2023-05-22T01:32:46.702Z,5.60
2023-05-22T01:35:31.841Z,5.66
2023-05-22T01:38:16.947Z,5.69
2023-05-22T01:41:02.341Z,5.56
2023-05-22T01:43:47.758Z,5.70
2023-05-22T01:46:32.906Z,5.67
2023-05-22T01:49:18.369Z,5.61
2023-05-22T01:52:03.898Z,5.48
2023-05-22T01:54:49.136Z,5.58
2023-05-22T01:57:34.569Z,5.50
2023-05-22T02:00:19.886Z,5.62
2023-05-22T02:03:05.379Z,5.72
2023-05-22T02:05:50.788Z,5.37
2023-05-22T02:08:36.203Z,5.49
2023-05-22T02:11:21.546Z,5.40
2023-05-22T02:14:06.881Z,5.53
2023-05-22T02:16:52.216Z,5.20
2023-05-22T02:19:37.613Z,5.43
2023-05-22T02:22:22.835Z,4.93
2023-05-22T02:25:08.258Z,5.73
2023-05-22T02:27:53.636Z,5.19
2023-05-22T02:30:39.157Z,5.05
2023-05-22T02:33:24.545Z,5.38
2023-05-22T02:36:09.839Z,5.12
2023-05-22T02:38:55.355Z,4.95
2023-05-22T02:41:40.753Z,5.14
2023-05-22T02:44:26.152Z,5.16
2023-05-22T02:47:11.576Z,5.11
2023-05-22T02:49:56.976Z,4.97
2023-05-22T02:52:42.450Z,4.87
2023-05-22T02:55:27.722Z,5.09
2023-05-22T02:58:13.169Z,4.96
2023-05-22T03:00:58.536Z,5.32
2023-05-22T03:03:44.041Z,4.85
2023-05-22T03:06:29.268Z,4.92
2023-05-22T03:09:14.388Z,4.99
2023-05-22T03:11:59.715Z,4.95
2023-05-22T03:14:44.964Z,5.03
2023-05-22T03:17:30.424Z,5.01
2023-05-22T03:20:15.909Z,4.94
2023-05-22T03:23:01.316Z,4.84
2023-05-22T03:25:46.691Z,4.75
2023-05-22T03:28:32.070Z,4.67
2023-05-22T03:31:17.531Z,4.78
2023-05-22T03:34:02.943Z,4.81
2023-05-22T03:36:48.170Z,4.80
2023-05-22T03:39:33.601Z,4.84
2023-05-22T03:42:18.960Z,4.79
2023-05-22T03:45:04.451Z,4.65
2023-05-22T03:47:49.778Z,4.89
2023-05-22T03:50:35.106Z,4.96
2023-05-22T03:53:20.613Z,4.64
2023-05-22T03:56:05.928Z,4.82
2023-05-22T03:58:51.435Z,4.67
2023-05-22T04:01:36.734Z,4.65
2023-05-22T04:04:22.180Z,4.56
2023-05-22T04:07:07.335Z,4.46
2023-05-22T04:09:52.520Z,4.47
2023-05-22T04:12:37.838Z,4.58
2023-05-22T04:15:23.172Z,4.56
2023-05-22T04:18:08.596Z,4.60
2023-05-22T04:20:53.967Z,4.52
2023-05-22T04:23:39.324Z,4.37
2023-05-22T04:26:24.748Z,4.51
2023-05-22T04:29:10.135Z,4.33
2023-05-22T04:31:55.600Z,4.41
2023-05-22T04:34:41.062Z,4.40
2023-05-22T04:37:26.576Z,4.73
2023-05-22T04:40:11.689Z,4.33
2023-05-22T04:42:56.981Z,4.38
2023-05-22T04:45:42.333Z,4.47
2023-05-22T04:48:27.506Z,4.23
2023-05-22T04:51:12.890Z,4.34
2023-05-22T04:53:58.246Z,4.72
2023-05-22T04:56:43.732Z,4.22
2023-05-22T04:59:29.171Z,4.49
2023-05-22T05:02:14.371Z,4.68
2023-05-22T05:04:59.949Z,4.86
2023-05-22T05:07:46.707Z,4.53
2023-05-22T05:10:33.028Z,4.84
2023-05-22T05:13:18.607Z,4.76
2023-05-22T05:16:03.902Z,4.84
2023-05-22T05:18:49.235Z,4.77
2023-05-22T05:21:34.298Z,5.14
2023-05-22T05:24:19.648Z,4.81
2023-05-22T05:27:05.054Z,4.94
2023-05-22T05:29:50.205Z,4.89
2023-05-22T05:32:35.600Z,4.71
2023-05-22T05:35:20.868Z,4.88
2023-05-22T05:38:06.199Z,4.63
2023-05-22T05:40:51.680Z,4.85
2023-05-22T05:43:37.066Z,4.93
2023-05-22T05:46:22.603Z,4.84
2023-05-22T05:49:07.704Z,4.94
2023-05-22T05:51:53.196Z,5.09
2023-05-22T05:54:38.363Z,5.27
2023-05-22T05:57:23.670Z,5.10
2023-05-22T06:00:09.185Z,5.36
2023-05-22T06:02:54.621Z,5.45
2023-05-22T06:05:40.288Z,5.23
2023-05-22T06:08:25.617Z,5.25
2023-05-22T06:11:10.931Z,5.04
2023-05-22T06:13:56.548Z,5.14
2023-05-22T06:16:41.795Z,5.14
2023-05-22T06:19:27.283Z,5.20
2023-05-22T06:22:12.598Z,5.07
2023-05-22T06:24:57.994Z,5.44
2023-05-22T06:27:43.310Z,5.24
2023-05-22T06:30:39.622Z,5.38
2023-05-22T06:33:25.581Z,5.08
2023-05-22T06:36:10.985Z,5.22
2023-05-22T06:38:56.402Z,5.02
2023-05-22T06:41:41.658Z,5.13
2023-05-22T06:44:27.300Z,5.19
2023-05-22T06:47:12.555Z,5.03
2023-05-22T06:49:57.998Z,5.24
2023-05-22T06:52:43.325Z,5.24
2023-05-22T06:55:28.565Z,5.12
2023-05-22T06:58:14.044Z,5.08
2023-05-22T07:00:59.398Z,5.21
2023-05-22T07:03:44.963Z,4.83
2023-05-22T07:06:30.261Z,5.33
2023-05-22T07:09:15.631Z,5.43
2023-05-22T07:12:01.024Z,5.55
2023-05-22T07:14:46.401Z,5.44
2023-05-22T07:17:31.962Z,5.02
2023-05-22T07:20:17.093Z,5.29
2023-05-22T07:23:02.698Z,5.37
2023-05-22T07:25:48.035Z,5.45
2023-05-22T07:28:33.389Z,5.48
2023-05-22T07:31:18.938Z,5.80
2023-05-22T07:34:04.229Z,5.62
2023-05-22T07:36:49.644Z,6.11
2023-05-22T07:39:34.895Z,5.90
2023-05-22T07:42:20.204Z,5.65
2023-05-22T07:45:05.612Z,5.71
2023-05-22T07:47:52.244Z,5.77
2023-05-22T07:50:39.587Z,5.85
2023-05-22T07:53:25.069Z,5.66
2023-05-22T07:56:10.416Z,5.92
2023-05-22T07:58:55.969Z,5.92
2023-05-22T08:01:41.104Z,5.70
2023-05-22T08:04:26.478Z,5.43
2023-05-22T08:07:11.744Z,5.59
2023-05-22T08:09:57.058Z,5.62
2023-05-22T08:12:42.309Z,5.71
2023-05-22T08:15:27.835Z,5.54
2023-05-22T08:18:13.413Z,5.85
2023-05-22T08:20:58.769Z,5.93
2023-05-22T08:23:44.031Z,5.69
2023-05-22T08:26:30.117Z,5.67
2023-05-22T08:29:17.388Z,6.00
2023-05-22T08:32:02.747Z,5.87
2023-05-22T08:34:48.179Z,5.74
2023-05-22T08:37:33.468Z,5.51
2023-05-22T08:40:18.856Z,5.93
2023-05-22T08:43:04.161Z,5.56
2023-05-22T08:45:49.627Z,5.54
2023-05-22T08:48:34.915Z,5.60
2023-05-22T08:51:20.247Z,5.76
2023-05-22T08:54:05.564Z,5.85
2023-05-22T08:56:56.921Z,5.67
2023-05-22T08:59:42.372Z,5.54
2023-05-22T09:02:27.799Z,5.76
2023-05-22T09:05:13.201Z,5.66
2023-05-22T09:08:08.292Z,5.58
2023-05-22T09:11:01.992Z,5.61
2023-05-22T09:13:47.126Z,5.70
2023-05-22T09:16:32.662Z,5.86
2023-05-22T09:19:17.917Z,5.54
2023-05-22T09:22:03.302Z,5.64
2023-05-22T09:24:48.571Z,5.68
2023-05-22T09:27:33.944Z,5.58
2023-05-22T09:30:19.287Z,5.45
2023-05-22T09:33:04.538Z,5.54
2023-05-22T09:35:49.968Z,5.54
2023-05-22T09:38:35.246Z,5.95
2023-05-22T09:41:20.595Z,5.98
2023-05-22T09:44:05.875Z,5.95
2023-05-22T09:46:51.482Z,5.76
2023-05-22T09:49:36.847Z,5.61
2023-05-22T09:52:22.090Z,5.50
2023-05-22T09:55:07.351Z,5.67
2023-05-22T09:57:52.367Z,5.72
2023-05-22T10:00:38.099Z,5.90
2023-05-22T10:03:23.335Z,5.63
2023-05-22T10:06:08.809Z,5.97
2023-05-22T10:08:54.259Z,5.88
2023-05-22T10:11:39.452Z,6.02
2023-05-22T10:14:24.833Z,5.65
2023-05-22T10:17:10.281Z,5.96
2023-05-22T10:19:55.641Z,5.71
2023-05-22T10:22:40.906Z,6.08
2023-05-22T10:25:26.197Z,5.82
2023-05-22T10:28:11.306Z,5.91
2023-05-22T10:30:56.663Z,5.88
2023-05-22T10:33:42.083Z,5.58
2023-05-22T10:36:27.500Z,5.90
2023-05-22T10:39:12.731Z,5.43
2023-05-22T10:41:58.170Z,5.98
2023-05-22T10:44:43.490Z,5.92
2023-05-22T10:47:28.949Z,5.83
2023-05-22T10:50:14.434Z,5.76
2023-05-22T10:52:59.860Z,5.67
2023-05-22T10:55:45.184Z,5.80
2023-05-22T10:58:30.429Z,5.67
2023-05-22T11:01:15.843Z,5.68
2023-05-22T11:04:01.382Z,5.87
2023-05-22T11:06:46.793Z,5.97
2023-05-22T11:09:32.384Z,5.83
2023-05-22T11:12:17.783Z,6.05
2023-05-22T11:15:03.452Z,6.19
2023-05-22T11:17:48.871Z,5.70
2023-05-22T11:20:34.410Z,5.84
2023-05-22T11:23:19.557Z,6.01
2023-05-22T11:26:04.813Z,6.03
2023-05-22T11:28:50.283Z,6.03
2023-05-22T11:31:35.654Z,6.06
2023-05-22T11:34:20.983Z,6.00
2023-05-22T11:37:06.318Z,5.93
2023-05-22T11:39:51.635Z,5.87
2023-05-22T11:42:37.453Z,6.16
2023-05-22T11:45:22.677Z,6.26
2023-05-22T11:48:08.222Z,6.46
2023-05-22T11:50:53.355Z,6.30
2023-05-22T11:53:38.768Z,6.27
2023-05-22T11:56:24.179Z,6.41
2023-05-22T11:59:09.479Z,6.62
2023-05-22T12:01:54.882Z,6.58
2023-05-22T12:04:40.196Z,6.65
2023-05-22T12:07:25.405Z,6.82
2023-05-22T12:10:10.866Z,6.87
2023-05-22T12:12:56.266Z,6.74
2023-05-22T12:15:42.027Z,6.92
2023-05-22T12:18:26.985Z,6.75
2023-05-22T12:21:12.376Z,6.31
2023-05-22T12:23:57.854Z,6.64
2023-05-22T12:26:43.188Z,6.66
2023-05-22T12:29:28.670Z,7.04
2023-05-22T12:32:14.082Z,6.63
2023-05-22T12:34:59.556Z,6.93
2023-05-22T12:37:44.780Z,6.84
2023-05-22T12:40:30.309Z,6.78
2023-05-22T12:43:15.593Z,6.55
2023-05-22T12:46:02.514Z,6.68
2023-05-22T12:48:48.555Z,6.55
2023-05-22T12:51:33.897Z,6.78
2023-05-22T12:54:19.155Z,6.85
2023-05-22T12:57:04.595Z,6.27
2023-05-22T12:59:49.742Z,6.81
2023-05-22T13:02:35.040Z,6.39
2023-05-22T13:05:20.596Z,6.65
2023-05-22T13:08:05.746Z,7.08
2023-05-22T13:10:51.264Z,9.17
2023-05-22T13:13:36.586Z,8.32
2023-05-22T13:16:22.024Z,7.62
2023-05-22T13:19:07.118Z,8.16
2023-05-22T13:21:52.653Z,7.63
2023-05-22T13:24:38.118Z,7.80
2023-05-22T13:27:23.378Z,7.75
2023-05-22T13:30:08.916Z,7.61
2023-05-22T13:32:54.160Z,7.46
2023-05-22T13:35:39.801Z,7.37
2023-05-22T13:38:25.323Z,7.99
2023-05-22T13:41:10.819Z,8.13
2023-05-22T13:43:56.191Z,8.31
2023-05-22T13:46:41.474Z,7.87
2023-05-22T13:49:27.151Z,7.97
2023-05-22T13:52:12.382Z,8.02
2023-05-22T13:54:57.897Z,8.16
2023-05-22T13:57:43.248Z,7.63
2023-05-22T14:00:28.630Z,7.56
2023-05-22T14:03:14.165Z,7.75
2023-05-22T14:05:59.303Z,7.53
2023-05-22T14:08:44.961Z,8.23
2023-05-22T14:11:30.438Z,9.64
2023-05-22T14:14:15.721Z,9.26
2023-05-22T14:17:01.273Z,9.09
2023-05-22T14:19:46.473Z,9.00
2023-05-22T14:22:36.332Z,9.52
2023-05-22T14:25:30.445Z,9.42
2023-05-22T14:28:15.935Z,8.82
2023-05-22T14:31:01.284Z,9.31
2023-05-22T14:33:46.648Z,8.75
2023-05-22T14:36:32.076Z,8.95
2023-05-22T14:39:17.438Z,8.52
2023-05-22T14:42:02.874Z,8.94
2023-05-22T14:44:48.250Z,8.35
2023-05-22T14:47:33.607Z,8.49
2023-05-22T14:50:22.853Z,8.40
2023-05-22T14:53:08.474Z,7.91
2023-05-22T14:55:53.772Z,8.40
2023-05-22T14:58:39.240Z,9.84
2023-05-22T15:01:24.630Z,9.60
2023-05-22T15:04:10.113Z,12.86
2023-05-22T15:06:55.395Z,11.75
2023-05-22T15:09:40.901Z,12.16
2023-05-22T15:12:26.225Z,13.28
2023-05-22T15:15:11.546Z,12.15
2023-05-22T15:17:56.874Z,12.83
2023-05-22T15:20:42.148Z,12.60
2023-05-22T15:23:27.628Z,12.50
2023-05-22T15:26:12.621Z,12.03
2023-05-22T15:28:57.929Z,11.54
2023-05-22T15:31:43.473Z,11.11
2023-05-22T15:34:28.797Z,11.73
2023-05-22T15:37:14.194Z,12.10
2023-05-22T15:39:59.521Z,13.05
2023-05-22T15:42:45.061Z,13.20
2023-05-22T15:45:30.716Z,13.02
2023-05-22T15:48:16.205Z,12.62
2023-05-22T15:51:01.460Z,12.90
2023-05-22T15:53:46.973Z,12.90
2023-05-22T15:56:32.558Z,12.75
2023-05-22T15:59:18.896Z,12.28
2023-05-22T16:02:04.195Z,11.87
2023-05-22T16:04:49.642Z,11.43
2023-05-22T16:07:35.114Z,11.07
2023-05-22T16:10:20.625Z,10.87
2023-05-22T16:13:05.992Z,10.86
2023-05-22T16:15:51.111Z,11.02
2023-05-22T16:18:36.136Z,10.52
2023-05-22T16:21:21.439Z,9.41
2023-05-22T16:24:06.815Z,9.54
2023-05-22T16:26:52.195Z,9.07
2023-05-22T16:29:37.662Z,9.57
2023-05-22T16:32:23.177Z,9.93
2023-05-22T16:35:08.588Z,9.97
2023-05-22T16:37:54.073Z,9.50
2023-05-22T16:40:39.332Z,9.58
2023-05-22T16:43:24.767Z,9.61
2023-05-22T16:46:10.100Z,10.18
2023-05-22T16:48:55.498Z,9.74
2023-05-22T16:51:40.900Z,9.20
2023-05-22T16:54:26.123Z,8.69
2023-05-22T16:57:11.677Z,8.97
2023-05-22T16:59:57.906Z,8.46
2023-05-22T17:02:43.741Z,8.49
2023-05-22T17:05:29.030Z,8.45
2023-05-22T17:08:14.368Z,8.26
2023-05-22T17:10:59.852Z,8.21
2023-05-22T17:13:45.077Z,7.83
2023-05-22T17:16:30.295Z,7.73
2023-05-22T17:19:15.482Z,7.57
2023-05-22T17:22:00.837Z,7.56
2023-05-22T17:24:46.318Z,7.68
2023-05-22T17:27:36.012Z,7.56
2023-05-22T17:30:21.360Z,7.34
2023-05-22T17:33:06.791Z,7.21
2023-05-22T17:35:51.955Z,6.96
2023-05-22T17:38:37.677Z,7.47
2023-05-22T17:41:22.780Z,6.98
2023-05-22T17:44:08.087Z,6.96
2023-05-22T17:46:53.416Z,7.34
2023-05-22T17:49:38.710Z,6.88
2023-05-22T17:52:24.211Z,7.14
2023-05-22T17:55:09.642Z,6.86
2023-05-22T17:57:54.989Z,7.05
2023-05-22T18:00:40.788Z,7.65
2023-05-22T18:03:26.471Z,7.75
2023-05-22T18:06:12.031Z,6.81
2023-05-22T18:08:57.175Z,7.06
2023-05-22T18:11:42.570Z,7.64
2023-05-22T18:14:27.969Z,7.55
2023-05-22T18:17:13.317Z,7.55
2023-05-22T18:19:58.832Z,7.64
2023-05-22T18:22:44.087Z,7.90
2023-05-22T18:25:29.341Z,9.54
2023-05-22T18:28:14.506Z,10.22
2023-05-22T18:30:59.764Z,10.76
2023-05-22T18:33:45.174Z,10.35
2023-05-22T18:36:30.276Z,11.01
2023-05-22T18:39:15.320Z,11.41
2023-05-22T18:42:00.722Z,11.89
2023-05-22T18:44:50.679Z,11.45
2023-05-22T18:47:36.315Z,11.24
2023-05-22T18:50:23.403Z,11.24
2023-05-22T18:53:08.744Z,10.62
2023-05-22T18:55:54.441Z,10.80
2023-05-22T18:58:39.702Z,10.69
2023-05-22T19:01:25.276Z,10.54
2023-05-22T19:04:13.558Z,9.98
2023-05-22T19:06:58.688Z,9.81
2023-05-22T19:09:43.926Z,9.97
2023-05-22T19:12:29.202Z,10.22
2023-05-22T19:15:14.703Z,10.25
2023-05-22T19:18:00.222Z,10.21
2023-05-22T19:20:45.488Z,9.78
2023-05-22T19:23:30.953Z,9.84
2023-05-22T19:26:16.350Z,9.62
2023-05-22T19:29:01.850Z,9.49
2023-05-22T19:31:47.156Z,9.53
2023-05-22T19:34:32.652Z,9.62
2023-05-22T19:37:18.053Z,9.40
2023-05-22T19:40:03.268Z,9.76
2023-05-22T19:42:48.574Z,9.53
2023-05-22T19:45:33.862Z,9.33
2023-05-22T19:48:19.236Z,9.55
2023-05-22T19:51:04.573Z,9.07
2023-05-22T19:53:49.824Z,9.04
2023-05-22T19:56:35.340Z,9.44
2023-05-22T19:59:20.612Z,10.72
2023-05-22T20:02:06.065Z,10.63
2023-05-22T20:04:51.534Z,10.85
2023-05-22T20:07:36.819Z,10.34
2023-05-22T20:10:22.241Z,10.79
2023-05-22T20:13:07.576Z,10.54
2023-05-22T20:15:52.980Z,10.23
2023-05-22T20:18:38.318Z,9.40
2023-05-22T20:21:23.774Z,9.89
2023-05-22T20:24:10.299Z,9.68
2023-05-22T20:26:55.717Z,9.35
2023-05-22T20:29:41.232Z,9.46
2023-05-22T20:32:26.618Z,9.60
2023-05-22T20:35:11.997Z,9.57
2023-05-22T20:37:57.426Z,9.15
2023-05-22T20:40:42.681Z,9.09
2023-05-22T20:43:28.144Z,9.24
2023-05-22T20:46:13.634Z,9.71
2023-05-22T20:48:58.862Z,9.61
2023-05-22T20:51:44.160Z,9.55
2023-05-22T20:54:29.605Z,9.65
2023-05-22T20:57:15.082Z,9.46
2023-05-22T21:00:00.387Z,9.14
2023-05-22T21:02:45.883Z,9.54
2023-05-22T21:05:31.063Z,9.21
2023-05-22T21:08:16.583Z,9.30
2023-05-22T21:11:02.043Z,9.51
2023-05-22T21:13:47.286Z,9.35
2023-05-22T21:16:36.355Z,9.08
2023-05-22T21:19:23.946Z,9.27
2023-05-22T21:22:09.055Z,9.08
2023-05-22T21:24:54.695Z,9.32
2023-05-22T21:27:41.568Z,8.87
2023-05-22T21:30:26.551Z,8.95
2023-05-22T21:33:11.945Z,8.62
2023-05-22T21:35:57.174Z,8.62
2023-05-22T21:38:42.494Z,9.22
2023-05-22T21:41:27.675Z,9.17
2023-05-22T21:44:13.116Z,8.83
2023-05-22T21:46:58.611Z,8.52
2023-05-22T21:49:44.006Z,8.62
2023-05-22T21:52:29.504Z,8.60
2023-05-22T21:55:14.551Z,8.80
2023-05-22T21:57:59.981Z,8.45
2023-05-22T22:00:45.595Z,8.65
2023-05-22T22:03:31.100Z,8.17
2023-05-22T22:06:16.385Z,8.43
2023-05-22T22:09:01.537Z,8.72
2023-05-22T22:11:47.103Z,8.80
2023-05-22T22:14:32.433Z,8.37
2023-05-22T22:17:17.906Z,8.22
2023-05-22T22:20:03.456Z,8.72
2023-05-22T22:22:48.689Z,8.02
2023-05-22T22:25:34.219Z,8.26
2023-05-22T22:28:19.444Z,8.10
2023-05-22T22:31:04.904Z,8.41
2023-05-22T22:33:50.293Z,8.24
2023-05-22T22:36:35.577Z,8.31
2023-05-22T22:39:20.990Z,8.30
2023-05-22T22:42:06.299Z,8.24
2023-05-22T22:44:51.835Z,8.36
2023-05-22T22:47:37.349Z,8.37
2023-05-22T22:50:22.656Z,8.14
2023-05-22T22:53:08.230Z,7.87
2023-05-22T22:55:53.833Z,7.73
2023-05-22T22:58:39.154Z,7.83
2023-05-22T23:01:24.481Z,8.25
2023-05-22T23:04:09.755Z,8.14
2023-05-22T23:06:54.970Z,7.92
2023-05-22T23:09:40.253Z,8.03
2023-05-22T23:12:25.775Z,7.48
2023-05-22T23:15:11.213Z,7.72
2023-05-22T23:17:56.645Z,8.07
2023-05-22T23:20:42.052Z,7.81
2023-05-22T23:23:27.506Z,7.81
2023-05-22T23:26:13.015Z,7.49
2023-05-22T23:28:58.312Z,7.91
2023-05-22T23:31:43.642Z,7.60
2023-05-22T23:34:28.979Z,8.00
2023-05-22T23:37:14.302Z,7.34
2023-05-22T23:39:59.836Z,7.97
2023-05-22T23:42:44.841Z,7.85
2023-05-22T23:45:30.450Z,7.63
2023-05-22T23:48:15.853Z,7.62
2023-05-22T23:51:01.229Z,7.82
2023-05-22T23:53:46.529Z,7.49
2023-05-22T23:56:31.834Z,7.43
2023-05-22T23:59:17.265Z,7.27
